BIEG

Egilsstaðir Airport

Egilsstaðir, Iceland
METAR BIEG 152000Z 18014KT 9999 FEW040 BKN120 13/06 Q0999
Observed Flight Rules
Jul-15 @ 20:00 UTC (47 minutes ago) Visual Flight Rules
Wind Visibility Clouds
180° at 14 knots 10,000+ meters
  • Few at 4,000' AGL
  • Broken at 12,000' AGL
Temperatures Readings
Current 13°C / 55°F
Dewpoint 6°C / 43°F
Humidity 63%
Altimeter 29.5" Hg
Pressure 999 hPa
Elevation 38
METAR BIEG 152000Z 18014KT 9999 FEW040 BKN120 13/06 Q0999
Observed Flight Rules
Jul-15 @ 20:00 UTC
(47 minutes ago)
VFR
Wind Visibility
180° at 14 knots 10,000+ meters
Clouds
  • Few at 4,000' AGL
  • Broken at 12,000' AGL
Temperature Dewpoint
13°C / 55°F 6°C / 43°F
Humidity Altimeter Pressure
63% 29.5" Hg 999 hPa